PWSweather.com
Personal Weather Stations
Station Observations
OBERT
Bodensee Hinterland, OberteuringenDE

Bodensee HinterlandOberteuringenDE

Lat: 47.714675, Lon: 9.44447

Elevation: 1427

Station Type: Wunder Weather Station

High Low Average
Temperature 49.1°F9.5°C 37.4°F3.0°C 44.1°F6.7°C
Dew Point 45.6°F7.6°C 33.6°F0.9°C 39.7°F4.3°C
Winds 17.9 mph 28.8 kmh Calm Calm 6.0 mph N9.7 kmh N
Wind Gusts 29.3 mph47.2 kmh -- 13.0 mph20.9 kmh
Humidity 100% 64% 85%
Pressure 29.74 in1007.1 mb 29.32 in992.9 mb -
Precipitation 0.00 in0.0 mm - -
Hour Temp Dew Point Humidity Winds Wind Gusts Pressure Precip Precip Rate Daily Precip Total
12:13 AM 40.6°F4.8°C 35.2°F1.8°C 80% 8.0 mph 12.9 kmh 14.3 mph23.0 kmh 29.42 in996.3 mb 0.00 in0.0 mm 0.00 in0.0 mm 0.00 in0.0 mm
12:43 AM 40.1°F4.5°C 35.0°F1.7°C 82% 6.7 mph 10.8 kmh 18.1 mph29.1 kmh 29.42 in996.3 mb 0.00 in0.0 mm 0.00 in0.0 mm 0.00 in0.0 mm
01:13 AM 39.2°F4.0°C 34.8°F1.6°C 84% 2.6 mph 4.2 kmh 10.6 mph17.1 kmh 29.37 in994.6 mb 0.00 in0.0 mm 0.00 in0.0 mm 0.00 in0.0 mm
01:43 AM 38.1°F3.4°C 34.2°F1.2°C 85% 1.8 mph 2.9 kmh 2.8 mph4.5 kmh 29.37 in994.6 mb 0.00 in0.0 mm 0.00 in0.0 mm 0.00 in0.0 mm
02:13 AM 38.4°F3.6°C 34.1°F1.2°C 84% 1.9 mph 3.1 kmh 5.9 mph9.5 kmh 29.38 in994.9 mb 0.00 in0.0 mm 0.00 in0.0 mm 0.00 in0.0 mm
02:43 AM 37.7°F3.2°C 33.6°F0.9°C 84% Calm Calm 0.9 mph1.4 kmh 29.37 in994.6 mb 0.00 in0.0 mm 0.00 in0.0 mm 0.00 in0.0 mm
03:13 AM 38.3°F3.5°C 33.7°F0.9°C 83% 3.1 mph 5.0 kmh 4.3 mph6.9 kmh 29.38 in994.9 mb 0.00 in0.0 mm 0.00 in0.0 mm 0.00 in0.0 mm
03:43 AM 40.4°F4.7°C 34.1°F1.2°C 77% 3.9 mph 6.3 kmh 10.6 mph17.1 kmh 29.37 in994.6 mb 0.00 in0.0 mm 0.00 in0.0 mm 0.00 in0.0 mm
04:13 AM 40.1°F4.5°C 35.0°F1.7°C 81% 1.4 mph 2.3 kmh 5.3 mph8.5 kmh 29.36 in994.2 mb 0.00 in0.0 mm 0.00 in0.0 mm 0.00 in0.0 mm
04:43 AM 40.6°F4.8°C 35.7°F2.1°C 82% 3.6 mph N5.8 kmh N 7.8 mph12.6 kmh 29.35 in993.9 mb 0.00 in0.0 mm 0.00 in0.0 mm 0.00 in0.0 mm
05:13 AM 40.4°F4.7°C 36.9°F2.7°C 87% 2.6 mph 4.2 kmh 10.0 mph16.1 kmh 29.34 in993.6 mb 0.00 in0.0 mm 0.00 in0.0 mm 0.00 in0.0 mm
05:43 AM 39.9°F4.4°C 37.2°F2.9°C 90% 0.6 mph N1.0 kmh N 3.1 mph5.0 kmh 29.33 in993.2 mb 0.00 in0.0 mm 0.00 in0.0 mm 0.00 in0.0 mm
06:13 AM 40.1°F4.5°C 38.0°F3.3°C 92% 0.8 mph N1.3 kmh N 3.1 mph5.0 kmh 29.32 in992.9 mb 0.00 in0.0 mm 0.00 in0.0 mm 0.00 in0.0 mm
06:43 AM 40.4°F4.7°C 39.3°F4.1°C 95% 2.7 mph 4.3 kmh 4.3 mph6.9 kmh 29.32 in992.9 mb 0.00 in0.0 mm 0.00 in0.0 mm 0.00 in0.0 mm
07:13 AM 44.0°F6.7°C 42.4°F5.8°C 94% 10.1 mph 16.3 kmh 17.1 mph27.5 kmh 29.34 in993.6 mb 0.00 in0.0 mm 0.00 in0.0 mm 0.00 in0.0 mm
07:43 AM 45.1°F7.3°C 44.0°F6.7°C 95% 6.8 mph 10.9 kmh 13.1 mph21.1 kmh 29.36 in994.2 mb 0.00 in0.0 mm 0.00 in0.0 mm 0.00 in0.0 mm
08:13 AM 45.5°F7.5°C 45.5°F7.5°C 100% 14.0 mph N22.5 kmh N 25.3 mph40.7 kmh 29.38 in994.9 mb 0.00 in0.0 mm 0.00 in0.0 mm 0.00 in0.0 mm
08:43 AM 44.4°F6.9°C 44.4°F6.9°C 100% 9.8 mph N15.8 kmh N 23.4 mph37.7 kmh 29.43 in996.6 mb 0.00 in0.0 mm 0.00 in0.0 mm 0.00 in0.0 mm
09:13 AM 44.6°F7.0°C 44.6°F7.0°C 100% 16.2 mph 26.1 kmh 25.3 mph40.7 kmh 29.46 in997.6 mb 0.00 in0.0 mm 0.00 in0.0 mm 0.00 in0.0 mm
09:43 AM 46.0°F7.8°C 45.4°F7.4°C 97% 14.3 mph 23.0 kmh 23.1 mph37.2 kmh 29.49 in998.6 mb 0.00 in0.0 mm 0.00 in0.0 mm 0.00 in0.0 mm
10:13 AM 46.5°F8.1°C 44.0°F6.7°C 90% 14.2 mph 22.9 kmh 25.6 mph41.2 kmh 29.51 in999.3 mb 0.00 in0.0 mm 0.00 in0.0 mm 0.00 in0.0 mm
10:43 AM 47.1°F8.4°C 43.7°F6.5°C 88% 14.4 mph 23.2 kmh 23.1 mph37.2 kmh 29.53 in1000.0 mb 0.00 in0.0 mm 0.00 in0.0 mm 0.00 in0.0 mm
11:13 AM 46.9°F8.3°C 42.1°F5.6°C 83% 14.5 mph 23.3 kmh 23.4 mph37.7 kmh 29.53 in1000.0 mb 0.00 in0.0 mm 0.00 in0.0 mm 0.00 in0.0 mm
11:43 AM 47.8°F8.8°C 43.5°F6.4°C 85% 5.6 mph 9.0 kmh 14.0 mph22.5 kmh 29.55 in1000.7 mb 0.00 in0.0 mm 0.00 in0.0 mm 0.00 in0.0 mm
12:13 PM 47.6°F8.7°C 43.4°F6.3°C 85% 5.5 mph N8.9 kmh N 10.6 mph17.1 kmh 29.57 in1001.4 mb 0.00 in0.0 mm 0.00 in0.0 mm 0.00 in0.0 mm
12:43 PM 48.3°F9.1°C 40.5°F4.7°C 74% 14.3 mph 23.0 kmh 29.0 mph46.7 kmh 29.59 in1002.0 mb 0.00 in0.0 mm 0.00 in0.0 mm 0.00 in0.0 mm
01:13 PM 47.6°F8.7°C 41.0°F5.0°C 77% 15.6 mph N25.1 kmh N 26.5 mph42.6 kmh 29.62 in1003.0 mb 0.00 in0.0 mm 0.00 in0.0 mm 0.00 in0.0 mm
01:43 PM 46.2°F7.9°C 38.0°F3.3°C 73% 17.9 mph 28.8 kmh 29.3 mph47.2 kmh 29.65 in1004.1 mb 0.00 in0.0 mm 0.00 in0.0 mm 0.00 in0.0 mm
02:13 PM 47.3°F8.5°C 37.7°F3.2°C 69% 15.9 mph 25.6 kmh 26.2 mph42.2 kmh 29.67 in1004.7 mb 0.00 in0.0 mm 0.00 in0.0 mm 0.00 in0.0 mm
02:43 PM 47.6°F8.7°C 36.8°F2.7°C 66% 8.3 mph N13.4 kmh N 20.0 mph32.2 kmh 29.68 in1005.1 mb 0.00 in0.0 mm 0.00 in0.0 mm 0.00 in0.0 mm
02:55 PM 48.0°F8.9°C 36.5°F2.5°C 64% 9.3 mph 15.0 kmh 16.5 mph26.6 kmh 29.69 in1005.4 mb 0.00 in0.0 mm 0.00 in0.0 mm 0.00 in0.0 mm
03:25 PM 46.7°F8.2°C 37.3°F2.9°C 69% 2.7 mph N4.3 kmh N 8.1 mph13.0 kmh 29.70 in1005.8 mb 0.00 in0.0 mm 0.00 in0.0 mm 0.00 in0.0 mm
03:56 PM 45.6°F7.6°C 38.8°F3.8°C 76% 2.9 mph 4.7 kmh 8.1 mph13.0 kmh 29.70 in1005.8 mb 0.00 in0.0 mm 0.00 in0.0 mm 0.00 in0.0 mm
04:26 PM 44.0°F6.7°C 37.2°F2.9°C 76% 0.1 mph N0.2 kmh N 4.3 mph6.9 kmh 29.70 in1005.8 mb 0.00 in0.0 mm 0.00 in0.0 mm 0.00 in0.0 mm
04:56 PM 44.4°F6.9°C 38.1°F3.4°C 78% 0.9 mph N1.4 kmh N 4.3 mph6.9 kmh 29.71 in1006.1 mb 0.00 in0.0 mm 0.00 in0.0 mm 0.00 in0.0 mm
05:26 PM 45.5°F7.5°C 37.2°F2.9°C 72% Calm Calm 4.3 mph6.9 kmh 29.70 in1005.8 mb 0.00 in0.0 mm 0.00 in0.0 mm 0.00 in0.0 mm
05:56 PM 47.3°F8.5°C 37.7°F3.2°C 69% 3.3 mph 5.3 kmh 8.7 mph14.0 kmh 29.70 in1005.8 mb 0.00 in0.0 mm 0.00 in0.0 mm 0.00 in0.0 mm
06:26 PM 46.5°F8.1°C 37.7°F3.2°C 71% 0.5 mph N0.8 kmh N 7.8 mph12.6 kmh 29.71 in1006.1 mb 0.00 in0.0 mm 0.00 in0.0 mm 0.00 in0.0 mm
06:56 PM 47.3°F8.5°C 39.5°F4.2°C 74% 2.9 mph 4.7 kmh 8.1 mph13.0 kmh 29.72 in1006.4 mb 0.00 in0.0 mm 0.00 in0.0 mm 0.00 in0.0 mm
07:26 PM 49.1°F9.5°C 42.9°F6.1°C 79% 6.8 mph 10.9 kmh 13.1 mph21.1 kmh 29.72 in1006.4 mb 0.00 in0.0 mm 0.00 in0.0 mm 0.00 in0.0 mm
07:56 PM 49.1°F9.5°C 44.2°F6.8°C 83% 9.3 mph 15.0 kmh 19.0 mph30.6 kmh 29.72 in1006.4 mb 0.00 in0.0 mm 0.00 in0.0 mm 0.00 in0.0 mm
08:26 PM 48.7°F9.3°C 45.6°F7.6°C 88% 12.9 mph 20.8 kmh 21.8 mph35.1 kmh 29.73 in1006.8 mb 0.00 in0.0 mm 0.00 in0.0 mm 0.00 in0.0 mm
08:56 PM 47.4°F8.6°C 45.2°F7.3°C 92% 10.7 mph 17.2 kmh 17.5 mph28.2 kmh 29.73 in1006.8 mb 0.00 in0.0 mm 0.00 in0.0 mm 0.00 in0.0 mm
09:26 PM 46.7°F8.2°C 45.3°F7.4°C 94% 8.2 mph N13.2 kmh N 20.0 mph32.2 kmh 29.73 in1006.8 mb 0.00 in0.0 mm 0.00 in0.0 mm 0.00 in0.0 mm
09:56 PM 45.6°F7.6°C 45.4°F7.4°C 99% 3.3 mph 5.3 kmh 13.4 mph21.6 kmh 29.74 in1007.1 mb 0.00 in0.0 mm 0.00 in0.0 mm 0.00 in0.0 mm
10:26 PM 44.6°F7.0°C 44.6°F7.0°C 100% Calm Calm 4.0 mph6.4 kmh 29.73 in1006.8 mb 0.00 in0.0 mm 0.00 in0.0 mm 0.00 in0.0 mm
10:56 PM 42.4°F5.8°C 42.4°F5.8°C 100% Calm Calm -- 29.74 in1007.1 mb 0.00 in0.0 mm 0.00 in0.0 mm 0.00 in0.0 mm
11:26 PM 39.2°F4.0°C 39.2°F4.0°C 100% Calm Calm -- 29.73 in1006.8 mb 0.00 in0.0 mm 0.00 in0.0 mm 0.00 in0.0 mm
11:56 PM 37.4°F3.0°C 37.4°F3.0°C 100% Calm Calm 2.8 mph4.5 kmh 29.72 in1006.4 mb 0.00 in0.0 mm 0.00 in0.0 mm 0.00 in0.0 mm